TNCM Airport Information

Runway Information
Runway 09 Length 7708 ft width 148 ft
Elevation 11 ft Threshold 162 ft Heading 81
Runway 27 Length 7708 ft Width 148 ft
Elevation 11 ft Threshold 394 ft Heading 261
Runway 10 Length 7152 ft width 148 ft
Elevation 12 ft Threshold 0 ft Heading 81
Runway 28 Length 7152 ft Width 148 ft
Elevation 9 ft Threshold 0 ft Heading 261
Airport Frequencies
Type APP Name JULIANA AP Frequency 128.95 MHZ
Type TWR Name JULIANA TW Frequency 118.7 MHZ
Airport Navaids
Type NDB Name St.mMarten Frequency 284 KHZ
Type VOR-DME Name St.mMarten Frequency 113000 KHZ
Airport Weather Information & NOTAM
ADDS - METARS form results

(2255 UTC 25 July 2021)
Data provider http://aviationweather.gov/metar/data/
 
METAR text: TNCM 252210Z 08008KT 9999 2500E VCSH BKN014 28/26 Q1016 TEMPO SHRA RMK VCSH E
Conditions at: TNCM (ST MAARTEN JULIA, VI) observed 2210 UTC 25 July 2021
Temperature: 28.0°C (82°F)
Dewpoint: 26.0°C (79°F) [RH = 89%]
Pressure (altimeter): 30.00 inches Hg (1016.0 mb)
Winds: from the E (80 degrees) at 9 MPH (8 knots; 4.1 m/s)
Visibility: 6 or more miles (10+ km)
Ceiling: 1400 feet AGL
Clouds: broken clouds at 1400 feet AGL
Weather: VCSH  (showers in vicinity)

METAR text: TNCM 252200Z 08009KT 9999 BKN014 28/26 Q1016 NOSIG
Conditions at: TNCM (ST MAARTEN JULIA, VI) observed 2200 UTC 25 July 2021
Temperature: 28.0°C (82°F)
Dewpoint: 26.0°C (79°F) [RH = 89%]
Pressure (altimeter): 30.00 inches Hg (1016.0 mb)
Winds: from the E (80 degrees) at 10 MPH (9 knots; 4.6 m/s)
Visibility: 6 or more miles (10+ km)
Ceiling: 1400 feet AGL
Clouds: broken clouds at 1400 feet AGL
Weather: no significant weather observed at this time

Forecast for: TNCM (ST MAARTEN JULIA, VI)
Text: TNCM 252103Z 2521/2618 10012KT P6SM VCTS SCT018CB BKN040
Forecast period: 2100 to 2200 UTC 25 July 2021
Forecast type: FROM: standard forecast or significant change
Winds: from the E (100 degrees) at 14 MPH (12 knots; 6.2 m/s)
Visibility: 6 or more miles (10+ km)
Ceiling: 4000 feet AGL
Clouds: scattered clouds at 1800 feet AGL
broken clouds at 4000 feet AGL
Weather: VCTS  (thunderstorm in vicinity)
Text: FM252200 10009KT P6SM VCSH SCT020
Forecast period: 2200 UTC 25 July 2021 to 1400 UTC 26 July 2021
Forecast type: FROM: standard forecast or significant change
Winds: from the E (100 degrees) at 10 MPH (9 knots; 4.6 m/s)
Visibility: 6 or more miles (10+ km)
Ceiling: at least 12,000 feet AGL
Clouds: scattered clouds at 2000 feet AGL
Weather: VCSH  (showers in vicinity)
Text: FM261400 08013KT P6SM FEW035
Forecast period: 1400 to 1800 UTC 26 July 2021
Forecast type: FROM: standard forecast or significant change
Winds: from the E (80 degrees) at 15 MPH (13 knots; 6.7 m/s)
Visibility: 6 or more miles (10+ km)
Ceiling: at least 12,000 feet AGL
Clouds: few clouds at 3500 feet AGL
Weather: no significant weather forecast for this period